sensor_id;sensor_type;location;lat;lon;timestamp;P1;durP1;ratioP1;P2;durP2;ratioP2
29202;SDS011;16245;51.170;4.884;2022-09-09T00:01:51;3.50;;;1.70;;
29202;SDS011;16245;51.170;4.884;2022-09-09T00:04:26;7.82;;;1.45;;
29202;SDS011;16245;51.170;4.884;2022-09-09T00:07:03;2.50;;;1.58;;
29202;SDS011;16245;51.170;4.884;2022-09-09T00:09:54;3.63;;;1.35;;
29202;SDS011;16245;51.170;4.884;2022-09-09T00:12:34;4.82;;;1.88;;
29202;SDS011;16245;51.170;4.884;2022-09-09T00:15:12;6.05;;;1.88;;
29202;SDS011;16245;51.170;4.884;2022-09-09T00:18:01;3.30;;;2.20;;
29202;SDS011;16245;51.170;4.884;2022-09-09T00:20:54;6.43;;;1.80;;
29202;SDS011;16245;51.170;4.884;2022-09-09T00:23:35;3.25;;;1.70;;
29202;SDS011;16245;51.170;4.884;2022-09-09T00:29:04;2.42;;;1.30;;
29202;SDS011;16245;51.170;4.884;2022-09-09T00:31:36;4.38;;;1.60;;
29202;SDS011;16245;51.170;4.884;2022-09-09T00:34:11;5.82;;;1.83;;
29202;SDS011;16245;51.170;4.884;2022-09-09T00:36:41;3.85;;;1.38;;
29202;SDS011;16245;51.170;4.884;2022-09-09T00:39:16;2.25;;;1.20;;
29202;SDS011;16245;51.170;4.884;2022-09-09T00:44:36;7.40;;;2.03;;
29202;SDS011;16245;51.170;4.884;2022-09-09T00:55:01;6.10;;;2.35;;
29202;SDS011;16245;51.170;4.884;2022-09-09T00:57:38;7.57;;;2.22;;
29202;SDS011;16245;51.170;4.884;2022-09-09T01:00:25;10.73;;;2.65;;
29202;SDS011;16245;51.170;4.884;2022-09-09T01:05:27;10.40;;;2.80;;
29202;SDS011;16245;51.170;4.884;2022-09-09T01:08:01;8.98;;;2.70;;
29202;SDS011;16245;51.170;4.884;2022-09-09T01:10:47;9.70;;;2.42;;
29202;SDS011;16245;51.170;4.884;2022-09-09T01:13:24;7.60;;;2.05;;
29202;SDS011;16245;51.170;4.884;2022-09-09T01:15:51;5.50;;;2.30;;
29202;SDS011;16245;51.170;4.884;2022-09-09T01:18:20;7.82;;;1.98;;
29202;SDS011;16245;51.170;4.884;2022-09-09T01:23:44;6.57;;;2.60;;
29202;SDS011;16245;51.170;4.884;2022-09-09T01:28:57;8.32;;;2.80;;
29202;SDS011;16245;51.170;4.884;2022-09-09T01:31:27;6.88;;;3.05;;
29202;SDS011;16245;51.170;4.884;2022-09-09T01:33:57;5.50;;;2.30;;
29202;SDS011;16245;51.170;4.884;2022-09-09T01:36:32;3.67;;;1.90;;
29202;SDS011;16245;51.170;4.884;2022-09-09T01:39:03;3.88;;;1.40;;
29202;SDS011;16245;51.170;4.884;2022-09-09T01:41:29;4.32;;;1.80;;
29202;SDS011;16245;51.170;4.884;2022-09-09T01:43:55;3.38;;;1.35;;
29202;SDS011;16245;51.170;4.884;2022-09-09T01:46:22;3.75;;;1.45;;
29202;SDS011;16245;51.170;4.884;2022-09-09T01:48:48;6.22;;;1.33;;
29202;SDS011;16245;51.170;4.884;2022-09-09T01:51:15;2.70;;;1.45;;
29202;SDS011;16245;51.170;4.884;2022-09-09T01:53:41;4.18;;;1.45;;
29202;SDS011;16245;51.170;4.884;2022-09-09T01:56:32;4.38;;;1.35;;
29202;SDS011;16245;51.170;4.884;2022-09-09T01:59:45;4.65;;;2.08;;
29202;SDS011;16245;51.170;4.884;2022-09-09T02:02:16;5.93;;;2.40;;
29202;SDS011;16245;51.170;4.884;2022-09-09T02:09:51;6.82;;;2.60;;
29202;SDS011;16245;51.170;4.884;2022-09-09T02:12:22;5.35;;;1.83;;
29202;SDS011;16245;51.170;4.884;2022-09-09T02:14:51;3.28;;;1.67;;
29202;SDS011;16245;51.170;4.884;2022-09-09T02:17:24;5.47;;;2.17;;
29202;SDS011;16245;51.170;4.884;2022-09-09T02:19:54;5.55;;;1.98;;
29202;SDS011;16245;51.170;4.884;2022-09-09T02:22:27;4.18;;;1.70;;
29202;SDS011;16245;51.170;4.884;2022-09-09T02:24:56;6.30;;;2.08;;
29202;SDS011;16245;51.170;4.884;2022-09-09T02:27:24;5.75;;;1.92;;
29202;SDS011;16245;51.170;4.884;2022-09-09T02:29:49;3.03;;;1.70;;
29202;SDS011;16245;51.170;4.884;2022-09-09T02:32:19;4.10;;;1.73;;
29202;SDS011;16245;51.170;4.884;2022-09-09T02:34:49;7.72;;;1.92;;
29202;SDS011;16245;51.170;4.884;2022-09-09T02:37:19;3.85;;;1.67;;
29202;SDS011;16245;51.170;4.884;2022-09-09T02:39:48;3.60;;;1.73;;
29202;SDS011;16245;51.170;4.884;2022-09-09T02:42:14;7.47;;;1.98;;
29202;SDS011;16245;51.170;4.884;2022-09-09T02:44:40;6.63;;;1.95;;
29202;SDS011;16245;51.170;4.884;2022-09-09T02:52:45;3.60;;;3.08;;
29202;SDS011;16245;51.170;4.884;2022-09-09T02:55:17;9.23;;;4.30;;
29202;SDS011;16245;51.170;4.884;2022-09-09T02:57:52;8.35;;;3.42;;
29202;SDS011;16245;51.170;4.884;2022-09-09T03:00:25;13.18;;;4.65;;
29202;SDS011;16245;51.170;4.884;2022-09-09T03:02:52;8.10;;;4.07;;
29202;SDS011;16245;51.170;4.884;2022-09-09T03:05:19;11.13;;;4.18;;
29202;SDS011;16245;51.170;4.884;2022-09-09T03:07:45;6.60;;;3.35;;
29202;SDS011;16245;51.170;4.884;2022-09-09T03:10:11;12.52;;;4.28;;
29202;SDS011;16245;51.170;4.884;2022-09-09T03:12:37;7.50;;;4.10;;
29202;SDS011;16245;51.170;4.884;2022-09-09T03:15:03;11.32;;;3.35;;
29202;SDS011;16245;51.170;4.884;2022-09-09T03:17:30;5.65;;;3.30;;
29202;SDS011;16245;51.170;4.884;2022-09-09T03:19:56;10.00;;;3.17;;
29202;SDS011;16245;51.170;4.884;2022-09-09T03:22:23;12.52;;;3.97;;
29202;SDS011;16245;51.170;4.884;2022-09-09T03:24:50;6.65;;;3.38;;
29202;SDS011;16245;51.170;4.884;2022-09-09T03:27:16;11.13;;;3.90;;
29202;SDS011;16245;51.170;4.884;2022-09-09T03:29:42;8.38;;;4.35;;
29202;SDS011;16245;51.170;4.884;2022-09-09T03:32:08;8.73;;;4.40;;
29202;SDS011;16245;51.170;4.884;2022-09-09T03:34:35;12.43;;;4.32;;
29202;SDS011;16245;51.170;4.884;2022-09-09T03:37:04;8.35;;;3.13;;
29202;SDS011;16245;51.170;4.884;2022-09-09T03:39:30;9.63;;;4.10;;
29202;SDS011;16245;51.170;4.884;2022-09-09T03:41:56;5.80;;;3.00;;
29202;SDS011;16245;51.170;4.884;2022-09-09T03:44:22;12.38;;;5.25;;
29202;SDS011;16245;51.170;4.884;2022-09-09T03:46:47;12.00;;;3.70;;
29202;SDS011;16245;51.170;4.884;2022-09-09T03:49:13;11.52;;;4.40;;
29202;SDS011;16245;51.170;4.884;2022-09-09T03:51:39;5.53;;;2.63;;
29202;SDS011;16245;51.170;4.884;2022-09-09T03:54:05;10.20;;;2.72;;
29202;SDS011;16245;51.170;4.884;2022-09-09T03:56:33;5.60;;;2.00;;
29202;SDS011;16245;51.170;4.884;2022-09-09T03:59:00;8.20;;;2.45;;
29202;SDS011;16245;51.170;4.884;2022-09-09T04:01:25;7.65;;;3.25;;
29202;SDS011;16245;51.170;4.884;2022-09-09T04:03:51;7.28;;;1.95;;
29202;SDS011;16245;51.170;4.884;2022-09-09T04:06:17;11.52;;;3.60;;
29202;SDS011;16245;51.170;4.884;2022-09-09T04:08:45;10.43;;;3.22;;
29202;SDS011;16245;51.170;4.884;2022-09-09T04:11:13;10.18;;;3.38;;
29202;SDS011;16245;51.170;4.884;2022-09-09T04:13:40;12.27;;;3.38;;
29202;SDS011;16245;51.170;4.884;2022-09-09T04:16:07;9.23;;;3.22;;
29202;SDS011;16245;51.170;4.884;2022-09-09T04:18:35;10.30;;;3.10;;
29202;SDS011;16245;51.170;4.884;2022-09-09T04:21:01;7.78;;;3.20;;
29202;SDS011;16245;51.170;4.884;2022-09-09T04:23:28;10.43;;;4.65;;
29202;SDS011;16245;51.170;4.884;2022-09-09T04:25:55;12.73;;;4.32;;
29202;SDS011;16245;51.170;4.884;2022-09-09T04:28:23;7.22;;;3.00;;
29202;SDS011;16245;51.170;4.884;2022-09-09T04:30:50;8.32;;;3.25;;
29202;SDS011;16245;51.170;4.884;2022-09-09T04:33:17;10.45;;;4.47;;
29202;SDS011;16245;51.170;4.884;2022-09-09T04:35:45;7.13;;;2.83;;
29202;SDS011;16245;51.170;4.884;2022-09-09T04:38:13;8.88;;;2.45;;
29202;SDS011;16245;51.170;4.884;2022-09-09T04:40:39;7.32;;;2.42;;
29202;SDS011;16245;51.170;4.884;2022-09-09T04:43:16;7.32;;;2.20;;
29202;SDS011;16245;51.170;4.884;2022-09-09T04:45:46;8.88;;;2.33;;
29202;SDS011;16245;51.170;4.884;2022-09-09T04:48:13;8.57;;;2.92;;
29202;SDS011;16245;51.170;4.884;2022-09-09T04:50:39;9.65;;;2.70;;
29202;SDS011;16245;51.170;4.884;2022-09-09T04:53:05;6.10;;;2.05;;
29202;SDS011;16245;51.170;4.884;2022-09-09T04:55:32;9.60;;;2.30;;
29202;SDS011;16245;51.170;4.884;2022-09-09T04:58:06;11.40;;;2.60;;
29202;SDS011;16245;51.170;4.884;2022-09-09T05:00:34;13.60;;;2.42;;
29202;SDS011;16245;51.170;4.884;2022-09-09T05:03:06;8.60;;;2.25;;
29202;SDS011;16245;51.170;4.884;2022-09-09T05:05:33;10.82;;;2.95;;
29202;SDS011;16245;51.170;4.884;2022-09-09T05:10:33;14.68;;;2.85;;
29202;SDS011;16245;51.170;4.884;2022-09-09T05:13:01;8.20;;;2.15;;
29202;SDS011;16245;51.170;4.884;2022-09-09T05:15:27;8.07;;;2.17;;
29202;SDS011;16245;51.170;4.884;2022-09-09T05:17:56;7.30;;;1.73;;
29202;SDS011;16245;51.170;4.884;2022-09-09T05:20:24;9.70;;;2.97;;
29202;SDS011;16245;51.170;4.884;2022-09-09T05:22:52;11.45;;;2.88;;
29202;SDS011;16245;51.170;4.884;2022-09-09T05:25:18;8.35;;;2.72;;
29202;SDS011;16245;51.170;4.884;2022-09-09T05:27:44;9.75;;;3.00;;
29202;SDS011;16245;51.170;4.884;2022-09-09T05:30:10;7.40;;;2.35;;
29202;SDS011;16245;51.170;4.884;2022-09-09T05:32:36;7.20;;;2.40;;
29202;SDS011;16245;51.170;4.884;2022-09-09T05:35:02;6.95;;;2.13;;
29202;SDS011;16245;51.170;4.884;2022-09-09T05:37:28;8.25;;;2.47;;
29202;SDS011;16245;51.170;4.884;2022-09-09T05:39:55;12.70;;;2.85;;
29202;SDS011;16245;51.170;4.884;2022-09-09T05:42:21;8.95;;;2.75;;
29202;SDS011;16245;51.170;4.884;2022-09-09T05:44:47;12.43;;;2.50;;
29202;SDS011;16245;51.170;4.884;2022-09-09T05:47:12;7.95;;;2.42;;
29202;SDS011;16245;51.170;4.884;2022-09-09T05:49:38;10.82;;;2.90;;
29202;SDS011;16245;51.170;4.884;2022-09-09T05:52:03;10.82;;;2.72;;
29202;SDS011;16245;51.170;4.884;2022-09-09T05:54:29;10.18;;;2.53;;
29202;SDS011;16245;51.170;4.884;2022-09-09T05:56:55;9.60;;;2.45;;
29202;SDS011;16245;51.170;4.884;2022-09-09T05:59:21;11.10;;;2.85;;
29202;SDS011;16245;51.170;4.884;2022-09-09T06:01:48;10.98;;;2.88;;
29202;SDS011;16245;51.170;4.884;2022-09-09T06:04:14;9.20;;;2.60;;
29202;SDS011;16245;51.170;4.884;2022-09-09T06:06:40;8.52;;;2.67;;
29202;SDS011;16245;51.170;4.884;2022-09-09T06:09:07;9.23;;;2.88;;
29202;SDS011;16245;51.170;4.884;2022-09-09T06:11:35;12.10;;;2.50;;
29202;SDS011;16245;51.170;4.884;2022-09-09T06:14:02;10.25;;;2.90;;
29202;SDS011;16245;51.170;4.884;2022-09-09T06:16:29;10.30;;;3.38;;
29202;SDS011;16245;51.170;4.884;2022-09-09T06:18:57;9.70;;;2.53;;
29202;SDS011;16245;51.170;4.884;2022-09-09T06:21:24;10.30;;;2.20;;
29202;SDS011;16245;51.170;4.884;2022-09-09T06:23:51;14.43;;;2.55;;
29202;SDS011;16245;51.170;4.884;2022-09-09T06:26:21;8.05;;;2.33;;
29202;SDS011;16245;51.170;4.884;2022-09-09T06:28:49;6.88;;;2.30;;
29202;SDS011;16245;51.170;4.884;2022-09-09T06:31:17;12.93;;;3.65;;
29202;SDS011;16245;51.170;4.884;2022-09-09T06:33:49;8.68;;;2.38;;
29202;SDS011;16245;51.170;4.884;2022-09-09T06:36:17;12.75;;;3.00;;
29202;SDS011;16245;51.170;4.884;2022-09-09T06:38:45;7.57;;;2.60;;
29202;SDS011;16245;51.170;4.884;2022-09-09T06:41:12;8.02;;;2.08;;
29202;SDS011;16245;51.170;4.884;2022-09-09T06:43:39;9.57;;;2.60;;
29202;SDS011;16245;51.170;4.884;2022-09-09T06:46:14;9.23;;;2.97;;
29202;SDS011;16245;51.170;4.884;2022-09-09T06:48:41;10.93;;;2.42;;
29202;SDS011;16245;51.170;4.884;2022-09-09T06:51:10;12.75;;;2.55;;
29202;SDS011;16245;51.170;4.884;2022-09-09T06:53:43;11.18;;;2.95;;
29202;SDS011;16245;51.170;4.884;2022-09-09T06:58:36;11.90;;;2.70;;
29202;SDS011;16245;51.170;4.884;2022-09-09T07:01:08;11.52;;;2.72;;
29202;SDS011;16245;51.170;4.884;2022-09-09T07:03:34;10.60;;;3.00;;
29202;SDS011;16245;51.170;4.884;2022-09-09T07:06:00;9.93;;;2.63;;
29202;SDS011;16245;51.170;4.884;2022-09-09T07:08:26;10.75;;;2.40;;
29202;SDS011;16245;51.170;4.884;2022-09-09T07:10:53;14.10;;;3.08;;
29202;SDS011;16245;51.170;4.884;2022-09-09T07:13:27;8.10;;;2.58;;
29202;SDS011;16245;51.170;4.884;2022-09-09T07:15:53;9.77;;;2.47;;
29202;SDS011;16245;51.170;4.884;2022-09-09T07:18:19;10.57;;;3.05;;
29202;SDS011;16245;51.170;4.884;2022-09-09T07:20:54;19.77;;;3.58;;
29202;SDS011;16245;51.170;4.884;2022-09-09T07:23:22;13.88;;;2.50;;
29202;SDS011;16245;51.170;4.884;2022-09-09T07:25:48;9.15;;;2.67;;
29202;SDS011;16245;51.170;4.884;2022-09-09T07:28:14;10.00;;;2.85;;
29202;SDS011;16245;51.170;4.884;2022-09-09T07:30:39;11.65;;;3.35;;
29202;SDS011;16245;51.170;4.884;2022-09-09T07:33:05;7.40;;;2.47;;
29202;SDS011;16245;51.170;4.884;2022-09-09T07:35:31;8.60;;;2.20;;
29202;SDS011;16245;51.170;4.884;2022-09-09T07:37:57;12.38;;;2.50;;
29202;SDS011;16245;51.170;4.884;2022-09-09T07:40:25;9.55;;;2.58;;
29202;SDS011;16245;51.170;4.884;2022-09-09T07:42:51;8.65;;;2.83;;
29202;SDS011;16245;51.170;4.884;2022-09-09T07:45:17;12.18;;;2.83;;
29202;SDS011;16245;51.170;4.884;2022-09-09T07:47:42;13.43;;;3.28;;
29202;SDS011;16245;51.170;4.884;2022-09-09T07:50:09;12.98;;;3.13;;
29202;SDS011;16245;51.170;4.884;2022-09-09T07:52:35;11.60;;;2.90;;
29202;SDS011;16245;51.170;4.884;2022-09-09T07:55:04;10.27;;;2.60;;
29202;SDS011;16245;51.170;4.884;2022-09-09T07:57:30;12.00;;;2.63;;
29202;SDS011;16245;51.170;4.884;2022-09-09T07:59:56;10.27;;;2.88;;
29202;SDS011;16245;51.170;4.884;2022-09-09T08:02:23;11.68;;;3.10;;
29202;SDS011;16245;51.170;4.884;2022-09-09T08:04:50;10.30;;;2.65;;
29202;SDS011;16245;51.170;4.884;2022-09-09T08:07:16;12.85;;;2.55;;
29202;SDS011;16245;51.170;4.884;2022-09-09T08:09:42;10.35;;;2.95;;
29202;SDS011;16245;51.170;4.884;2022-09-09T08:12:08;10.52;;;2.25;;
29202;SDS011;16245;51.170;4.884;2022-09-09T08:14:35;7.88;;;2.45;;
29202;SDS011;16245;51.170;4.884;2022-09-09T08:17:01;6.70;;;2.30;;
29202;SDS011;16245;51.170;4.884;2022-09-09T08:19:27;9.02;;;2.35;;
29202;SDS011;16245;51.170;4.884;2022-09-09T08:21:58;16.52;;;3.00;;
29202;SDS011;16245;51.170;4.884;2022-09-09T08:24:26;11.88;;;2.22;;
29202;SDS011;16245;51.170;4.884;2022-09-09T08:26:53;13.05;;;2.60;;
29202;SDS011;16245;51.170;4.884;2022-09-09T08:29:18;10.38;;;2.67;;
29202;SDS011;16245;51.170;4.884;2022-09-09T08:31:46;10.48;;;1.92;;
29202;SDS011;16245;51.170;4.884;2022-09-09T08:34:14;12.07;;;3.05;;
29202;SDS011;16245;51.170;4.884;2022-09-09T08:36:41;8.38;;;1.92;;
29202;SDS011;16245;51.170;4.884;2022-09-09T08:39:09;9.70;;;2.50;;
29202;SDS011;16245;51.170;4.884;2022-09-09T08:58:14;6.97;;;2.20;;
29202;SDS011;16245;51.170;4.884;2022-09-09T09:03:38;14.05;;;2.55;;
29202;SDS011;16245;51.170;4.884;2022-09-09T09:06:30;10.85;;;2.45;;
29202;SDS011;16245;51.170;4.884;2022-09-09T09:11:58;7.95;;;2.33;;
29202;SDS011;16245;51.170;4.884;2022-09-09T09:14:30;9.95;;;2.33;;
29202;SDS011;16245;51.170;4.884;2022-09-09T09:19:31;8.63;;;2.50;;
29202;SDS011;16245;51.170;4.884;2022-09-09T09:27:31;10.45;;;2.67;;
29202;SDS011;16245;51.170;4.884;2022-09-09T09:30:21;10.57;;;2.40;;
29202;SDS011;16245;51.170;4.884;2022-09-09T09:33:02;11.10;;;2.42;;
29202;SDS011;16245;51.170;4.884;2022-09-09T09:35:33;11.93;;;2.90;;
29202;SDS011;16245;51.170;4.884;2022-09-09T09:37:59;7.65;;;3.00;;
29202;SDS011;16245;51.170;4.884;2022-09-09T09:40:26;10.15;;;2.45;;
29202;SDS011;16245;51.170;4.884;2022-09-09T09:47:58;6.90;;;2.05;;
29202;SDS011;16245;51.170;4.884;2022-09-09T09:50:25;9.88;;;3.00;;
29202;SDS011;16245;51.170;4.884;2022-09-09T09:52:58;7.57;;;2.22;;
29202;SDS011;16245;51.170;4.884;2022-09-09T09:55:26;7.70;;;2.53;;
29202;SDS011;16245;51.170;4.884;2022-09-09T09:57:59;6.72;;;2.28;;
29202;SDS011;16245;51.170;4.884;2022-09-09T10:00:26;13.02;;;3.20;;
29202;SDS011;16245;51.170;4.884;2022-09-09T10:02:52;12.02;;;3.38;;
29202;SDS011;16245;51.170;4.884;2022-09-09T10:08:04;17.42;;;3.47;;
29202;SDS011;16245;51.170;4.884;2022-09-09T10:13:15;11.20;;;3.20;;
29202;SDS011;16245;51.170;4.884;2022-09-09T10:16:07;10.75;;;3.33;;
29202;SDS011;16245;51.170;4.884;2022-09-09T10:24:01;7.68;;;2.70;;
29202;SDS011;16245;51.170;4.884;2022-09-09T10:29:47;7.85;;;3.00;;
29202;SDS011;16245;51.170;4.884;2022-09-09T10:35:25;13.52;;;3.85;;
29202;SDS011;16245;51.170;4.884;2022-09-09T10:46:06;9.82;;;2.65;;
29202;SDS011;16245;51.170;4.884;2022-09-09T10:57:17;15.65;;;3.38;;
29202;SDS011;16245;51.170;4.884;2022-09-09T10:59:57;10.75;;;3.17;;
29202;SDS011;16245;51.170;4.884;2022-09-09T11:02:31;7.47;;;2.70;;
29202;SDS011;16245;51.170;4.884;2022-09-09T11:05:08;9.23;;;2.88;;
29202;SDS011;16245;51.170;4.884;2022-09-09T11:07:58;8.77;;;2.45;;
29202;SDS011;16245;51.170;4.884;2022-09-09T11:13:06;7.85;;;2.50;;
29202;SDS011;16245;51.170;4.884;2022-09-09T11:15:46;10.40;;;2.78;;
29202;SDS011;16245;51.170;4.884;2022-09-09T11:18:19;8.75;;;2.78;;
29202;SDS011;16245;51.170;4.884;2022-09-09T11:20:48;7.80;;;2.40;;
29202;SDS011;16245;51.170;4.884;2022-09-09T11:23:17;7.70;;;2.78;;
29202;SDS011;16245;51.170;4.884;2022-09-09T11:25:56;6.57;;;2.00;;
29202;SDS011;16245;51.170;4.884;2022-09-09T11:28:45;8.43;;;2.25;;
29202;SDS011;16245;51.170;4.884;2022-09-09T11:31:38;8.63;;;3.10;;
29202;SDS011;16245;51.170;4.884;2022-09-09T11:34:31;7.30;;;2.17;;
29202;SDS011;16245;51.170;4.884;2022-09-09T11:37:15;10.10;;;2.47;;
29202;SDS011;16245;51.170;4.884;2022-09-09T11:43:01;7.97;;;1.90;;
29202;SDS011;16245;51.170;4.884;2022-09-09T11:45:27;6.18;;;2.13;;
29202;SDS011;16245;51.170;4.884;2022-09-09T11:47:58;10.38;;;2.55;;
29202;SDS011;16245;51.170;4.884;2022-09-09T11:52:51;7.18;;;2.25;;
29202;SDS011;16245;51.170;4.884;2022-09-09T11:55:32;3.00;;;1.60;;
29202;SDS011;16245;51.170;4.884;2022-09-09T12:00:45;4.63;;;1.70;;
29202;SDS011;16245;51.170;4.884;2022-09-09T12:05:59;5.22;;;1.85;;
29202;SDS011;16245;51.170;4.884;2022-09-09T12:08:40;5.95;;;1.80;;
29202;SDS011;16245;51.170;4.884;2022-09-09T12:11:09;6.78;;;1.60;;
29202;SDS011;16245;51.170;4.884;2022-09-09T12:13:36;6.38;;;1.55;;
29202;SDS011;16245;51.170;4.884;2022-09-09T12:16:01;6.38;;;1.58;;
29202;SDS011;16245;51.170;4.884;2022-09-09T12:18:36;5.03;;;1.83;;
29202;SDS011;16245;51.170;4.884;2022-09-09T12:21:11;10.60;;;2.35;;
29202;SDS011;16245;51.170;4.884;2022-09-09T12:23:59;4.82;;;1.42;;
29202;SDS011;16245;51.170;4.884;2022-09-09T12:26:40;2.83;;;0.77;;
29202;SDS011;16245;51.170;4.884;2022-09-09T12:29:39;4.45;;;1.33;;
29202;SDS011;16245;51.170;4.884;2022-09-09T12:32:25;7.97;;;1.50;;
29202;SDS011;16245;51.170;4.884;2022-09-09T12:40:03;4.43;;;1.25;;
29202;SDS011;16245;51.170;4.884;2022-09-09T12:42:50;3.38;;;1.50;;
29202;SDS011;16245;51.170;4.884;2022-09-09T12:45:17;4.68;;;1.42;;
29202;SDS011;16245;51.170;4.884;2022-09-09T12:47:46;4.70;;;1.42;;
29202;SDS011;16245;51.170;4.884;2022-09-09T12:50:22;4.38;;;1.67;;
29202;SDS011;16245;51.170;4.884;2022-09-09T12:53:02;6.80;;;2.03;;
29202;SDS011;16245;51.170;4.884;2022-09-09T12:55:35;3.17;;;1.63;;
29202;SDS011;16245;51.170;4.884;2022-09-09T12:58:02;4.10;;;1.30;;
29202;SDS011;16245;51.170;4.884;2022-09-09T13:00:31;4.78;;;1.20;;
29202;SDS011;16245;51.170;4.884;2022-09-09T13:02:59;4.03;;;1.20;;
29202;SDS011;16245;51.170;4.884;2022-09-09T13:05:27;8.50;;;1.55;;
29202;SDS011;16245;51.170;4.884;2022-09-09T13:08:05;3.58;;;1.30;;
29202;SDS011;16245;51.170;4.884;2022-09-09T13:10:54;9.20;;;1.75;;
29202;SDS011;16245;51.170;4.884;2022-09-09T13:13:22;4.57;;;1.50;;
29202;SDS011;16245;51.170;4.884;2022-09-09T13:15:56;4.57;;;1.60;;
29202;SDS011;16245;51.170;4.884;2022-09-09T13:18:23;6.60;;;1.35;;
29202;SDS011;16245;51.170;4.884;2022-09-09T13:21:00;3.20;;;1.25;;
29202;SDS011;16245;51.170;4.884;2022-09-09T13:23:28;8.63;;;1.90;;
29202;SDS011;16245;51.170;4.884;2022-09-09T13:25:57;6.07;;;1.50;;
29202;SDS011;16245;51.170;4.884;2022-09-09T13:28:25;4.50;;;1.33;;
29202;SDS011;16245;51.170;4.884;2022-09-09T13:30:59;3.15;;;1.17;;
29202;SDS011;16245;51.170;4.884;2022-09-09T13:36:01;7.82;;;1.90;;
29202;SDS011;16245;51.170;4.884;2022-09-09T13:38:29;5.45;;;1.20;;
29202;SDS011;16245;51.170;4.884;2022-09-09T13:41:01;2.13;;;1.30;;
29202;SDS011;16245;51.170;4.884;2022-09-09T13:43:30;4.47;;;1.50;;
29202;SDS011;16245;51.170;4.884;2022-09-09T13:46:04;2.17;;;1.08;;
29202;SDS011;16245;51.170;4.884;2022-09-09T13:48:57;3.55;;;1.35;;
29202;SDS011;16245;51.170;4.884;2022-09-09T13:54:16;3.22;;;1.17;;
29202;SDS011;16245;51.170;4.884;2022-09-09T13:56:43;4.75;;;1.63;;
29202;SDS011;16245;51.170;4.884;2022-09-09T13:59:13;4.68;;;1.63;;
29202;SDS011;16245;51.170;4.884;2022-09-09T14:01:41;4.03;;;1.20;;
29202;SDS011;16245;51.170;4.884;2022-09-09T14:04:07;2.88;;;1.00;;
29202;SDS011;16245;51.170;4.884;2022-09-09T14:06:37;6.88;;;1.40;;
29202;SDS011;16245;51.170;4.884;2022-09-09T14:09:09;3.97;;;1.35;;
29202;SDS011;16245;51.170;4.884;2022-09-09T14:11:36;4.38;;;1.33;;
29202;SDS011;16245;51.170;4.884;2022-09-09T14:14:02;2.72;;;1.48;;
29202;SDS011;16245;51.170;4.884;2022-09-09T14:16:28;4.47;;;1.23;;
29202;SDS011;16245;51.170;4.884;2022-09-09T14:18:54;2.40;;;0.93;;
29202;SDS011;16245;51.170;4.884;2022-09-09T14:21:23;5.93;;;1.45;;
29202;SDS011;16245;51.170;4.884;2022-09-09T14:23:49;5.30;;;1.35;;
29202;SDS011;16245;51.170;4.884;2022-09-09T14:26:15;3.20;;;1.30;;
29202;SDS011;16245;51.170;4.884;2022-09-09T14:28:40;4.57;;;1.45;;
29202;SDS011;16245;51.170;4.884;2022-09-09T14:31:06;3.80;;;1.13;;
29202;SDS011;16245;51.170;4.884;2022-09-09T14:33:32;3.50;;;1.15;;
29202;SDS011;16245;51.170;4.884;2022-09-09T14:35:59;2.97;;;1.13;;
29202;SDS011;16245;51.170;4.884;2022-09-09T14:38:29;2.85;;;1.10;;
29202;SDS011;16245;51.170;4.884;2022-09-09T14:40:56;3.75;;;1.80;;
29202;SDS011;16245;51.170;4.884;2022-09-09T14:43:23;5.50;;;1.58;;
29202;SDS011;16245;51.170;4.884;2022-09-09T14:45:49;4.45;;;1.77;;
29202;SDS011;16245;51.170;4.884;2022-09-09T14:48:16;5.00;;;1.33;;
29202;SDS011;16245;51.170;4.884;2022-09-09T14:50:42;5.50;;;1.10;;
29202;SDS011;16245;51.170;4.884;2022-09-09T14:53:08;4.47;;;1.52;;
29202;SDS011;16245;51.170;4.884;2022-09-09T14:55:35;1.85;;;0.80;;
29202;SDS011;16245;51.170;4.884;2022-09-09T14:58:01;4.57;;;1.25;;
29202;SDS011;16245;51.170;4.884;2022-09-09T15:00:27;4.72;;;1.27;;
29202;SDS011;16245;51.170;4.884;2022-09-09T15:02:53;3.78;;;1.40;;
29202;SDS011;16245;51.170;4.884;2022-09-09T15:05:19;6.13;;;1.55;;
29202;SDS011;16245;51.170;4.884;2022-09-09T15:07:45;4.15;;;1.42;;
29202;SDS011;16245;51.170;4.884;2022-09-09T15:10:11;3.92;;;1.30;;
29202;SDS011;16245;51.170;4.884;2022-09-09T15:12:37;1.67;;;1.10;;
29202;SDS011;16245;51.170;4.884;2022-09-09T15:15:03;3.08;;;1.13;;
29202;SDS011;16245;51.170;4.884;2022-09-09T15:17:29;3.60;;;1.20;;
29202;SDS011;16245;51.170;4.884;2022-09-09T15:19:56;3.10;;;1.30;;
29202;SDS011;16245;51.170;4.884;2022-09-09T15:22:21;4.55;;;1.65;;
29202;SDS011;16245;51.170;4.884;2022-09-09T15:24:49;4.05;;;1.17;;
29202;SDS011;16245;51.170;4.884;2022-09-09T15:27:15;3.08;;;0.85;;
29202;SDS011;16245;51.170;4.884;2022-09-09T15:29:40;2.33;;;1.17;;
29202;SDS011;16245;51.170;4.884;2022-09-09T15:32:07;5.75;;;1.38;;
29202;SDS011;16245;51.170;4.884;2022-09-09T15:34:33;4.32;;;1.60;;
29202;SDS011;16245;51.170;4.884;2022-09-09T15:36:59;2.05;;;1.08;;
29202;SDS011;16245;51.170;4.884;2022-09-09T15:39:25;2.00;;;0.98;;
29202;SDS011;16245;51.170;4.884;2022-09-09T15:41:51;2.60;;;1.15;;
29202;SDS011;16245;51.170;4.884;2022-09-09T15:44:17;2.63;;;1.00;;
29202;SDS011;16245;51.170;4.884;2022-09-09T15:46:52;5.53;;;1.38;;
29202;SDS011;16245;51.170;4.884;2022-09-09T15:49:25;2.92;;;1.95;;
29202;SDS011;16245;51.170;4.884;2022-09-09T15:51:52;9.10;;;2.05;;
29202;SDS011;16245;51.170;4.884;2022-09-09T15:54:20;5.43;;;1.70;;
29202;SDS011;16245;51.170;4.884;2022-09-09T15:56:50;6.13;;;2.00;;
29202;SDS011;16245;51.170;4.884;2022-09-09T15:59:21;5.00;;;1.85;;
29202;SDS011;16245;51.170;4.884;2022-09-09T16:01:52;2.05;;;0.98;;
29202;SDS011;16245;51.170;4.884;2022-09-09T16:04:20;3.13;;;1.10;;
29202;SDS011;16245;51.170;4.884;2022-09-09T16:06:50;3.33;;;1.30;;
29202;SDS011;16245;51.170;4.884;2022-09-09T16:09:16;4.25;;;1.27;;
29202;SDS011;16245;51.170;4.884;2022-09-09T16:11:42;2.15;;;0.95;;
29202;SDS011;16245;51.170;4.884;2022-09-09T16:14:08;5.43;;;1.08;;
29202;SDS011;16245;51.170;4.884;2022-09-09T16:16:34;2.08;;;1.05;;
29202;SDS011;16245;51.170;4.884;2022-09-09T16:19:00;2.72;;;0.88;;
29202;SDS011;16245;51.170;4.884;2022-09-09T16:21:49;2.83;;;0.98;;
29202;SDS011;16245;51.170;4.884;2022-09-09T16:24:17;1.58;;;0.60;;
29202;SDS011;16245;51.170;4.884;2022-09-09T16:26:45;2.97;;;0.98;;
29202;SDS011;16245;51.170;4.884;2022-09-09T16:29:13;4.30;;;1.02;;
29202;SDS011;16245;51.170;4.884;2022-09-09T16:31:40;3.35;;;0.70;;
29202;SDS011;16245;51.170;4.884;2022-09-09T16:34:07;1.60;;;0.90;;
29202;SDS011;16245;51.170;4.884;2022-09-09T16:36:33;3.67;;;0.95;;
29202;SDS011;16245;51.170;4.884;2022-09-09T16:39:02;2.67;;;0.80;;
29202;SDS011;16245;51.170;4.884;2022-09-09T16:41:30;4.72;;;1.10;;
29202;SDS011;16245;51.170;4.884;2022-09-09T16:43:57;3.85;;;1.00;;
29202;SDS011;16245;51.170;4.884;2022-09-09T16:46:24;1.83;;;0.90;;
29202;SDS011;16245;51.170;4.884;2022-09-09T16:48:52;3.72;;;1.20;;
29202;SDS011;16245;51.170;4.884;2022-09-09T16:51:27;3.15;;;1.00;;
29202;SDS011;16245;51.170;4.884;2022-09-09T16:53:54;2.40;;;1.08;;
29202;SDS011;16245;51.170;4.884;2022-09-09T16:56:24;1.92;;;0.80;;
29202;SDS011;16245;51.170;4.884;2022-09-09T16:58:54;2.20;;;1.00;;
29202;SDS011;16245;51.170;4.884;2022-09-09T17:01:31;6.90;;;1.10;;
29202;SDS011;16245;51.170;4.884;2022-09-09T17:04:00;2.80;;;1.25;;
29202;SDS011;16245;51.170;4.884;2022-09-09T17:06:30;2.63;;;1.45;;
29202;SDS011;16245;51.170;4.884;2022-09-09T17:09:00;5.28;;;1.35;;
29202;SDS011;16245;51.170;4.884;2022-09-09T17:11:29;1.70;;;1.05;;